createdAt,value
2023-06-27T00:01:05.392Z,67.63
2023-06-27T00:04:01.656Z,67.83
2023-06-27T00:06:53.897Z,68.07
2023-06-27T00:09:46.092Z,68.51
2023-06-27T00:12:38.387Z,68.61
2023-06-27T00:15:35.278Z,68.84
2023-06-27T00:18:35.433Z,68.97
2023-06-27T00:21:30.496Z,69.05
2023-06-27T00:24:22.655Z,69.47
2023-06-27T00:27:16.595Z,69.51
2023-06-27T00:30:10.284Z,69.84
2023-06-27T00:33:02.402Z,70.18
2023-06-27T00:35:54.541Z,70.18
2023-06-27T00:38:46.772Z,70.24
2023-06-27T00:41:38.816Z,70.37
2023-06-27T00:44:30.809Z,70.57
2023-06-27T00:47:23.589Z,70.71
2023-06-27T00:50:16.113Z,70.94
2023-06-27T00:53:08.199Z,71.17
2023-06-27T00:56:00.434Z,71.49
2023-06-27T00:58:52.808Z,71.38
2023-06-27T01:01:46.891Z,71.41
2023-06-27T01:04:40.231Z,71.05
2023-06-27T01:07:38.902Z,71.07
2023-06-27T01:10:37.415Z,71.48
2023-06-27T01:13:34.833Z,71.92
2023-06-27T01:16:30.743Z,72.32
2023-06-27T01:19:27.805Z,72.42
2023-06-27T01:22:30.344Z,72.56
2023-06-27T01:25:19.002Z,72.63
2023-06-27T01:28:15.756Z,72.87
2023-06-27T01:31:08.163Z,73.36
2023-06-27T01:34:05.531Z,73.53
2023-06-27T01:37:02.644Z,73.86
2023-06-27T01:39:59.801Z,74.22
2023-06-27T01:42:55.942Z,74.19
2023-06-27T01:45:48.410Z,74.30
2023-06-27T01:48:42.816Z,74.33
2023-06-27T01:51:34.962Z,74.38
2023-06-27T01:54:27.179Z,74.44
2023-06-27T01:57:19.254Z,74.55
2023-06-27T02:00:12.649Z,74.87
2023-06-27T02:03:04.927Z,75.02
2023-06-27T02:05:57.191Z,75.01
2023-06-27T02:08:49.290Z,75.15
2023-06-27T02:11:41.388Z,75.23
2023-06-27T02:14:33.470Z,75.20
2023-06-27T02:17:25.522Z,75.20
2023-06-27T02:20:17.533Z,75.25
2023-06-27T02:23:09.555Z,75.22
2023-06-27T02:26:03.431Z,75.44
2023-06-27T02:28:55.458Z,75.41
2023-06-27T02:31:47.522Z,75.53
2023-06-27T02:34:39.561Z,75.56
2023-06-27T02:37:31.650Z,75.64
2023-06-27T02:40:24.120Z,75.85
2023-06-27T02:43:16.246Z,75.91
2023-06-27T02:46:08.346Z,76.13
2023-06-27T02:49:00.500Z,76.19
2023-06-27T02:51:52.629Z,76.27
2023-06-27T02:54:44.693Z,76.29
2023-06-27T02:57:36.798Z,76.32
2023-06-27T03:00:28.941Z,76.25
2023-06-27T03:03:21.109Z,76.10
2023-06-27T03:06:14.056Z,76.17
2023-06-27T03:09:06.157Z,76.36
2023-06-27T03:11:58.220Z,76.49
2023-06-27T03:14:50.395Z,76.67
2023-06-27T03:17:43.083Z,76.52
2023-06-27T03:20:35.382Z,76.64
2023-06-27T03:23:27.794Z,76.89
2023-06-27T03:26:24.349Z,76.99
2023-06-27T03:29:16.670Z,77.15
2023-06-27T03:32:10.296Z,77.18
2023-06-27T03:35:02.573Z,77.29
2023-06-27T03:37:54.670Z,77.24
2023-06-27T03:40:46.685Z,77.43
2023-06-27T03:43:38.718Z,77.40
2023-06-27T03:46:30.757Z,77.12
2023-06-27T03:49:23.861Z,76.94
2023-06-27T03:52:15.967Z,77.11
2023-06-27T03:55:09.013Z,77.42
2023-06-27T03:58:01.051Z,77.50
2023-06-27T04:00:55.829Z,77.60
2023-06-27T04:03:47.922Z,77.66
2023-06-27T04:06:40.110Z,77.66
2023-06-27T04:09:31.968Z,77.77
2023-06-27T04:12:24.017Z,77.97
2023-06-27T04:15:16.165Z,77.85
2023-06-27T04:18:08.603Z,77.82
2023-06-27T04:21:00.763Z,77.84
2023-06-27T04:23:54.666Z,77.63
2023-06-27T04:26:35.376Z,77.68
2023-06-27T04:29:27.806Z,77.94
2023-06-27T04:32:19.959Z,78.10
2023-06-27T04:35:16.598Z,78.29
2023-06-27T04:38:10.024Z,78.16
2023-06-27T04:41:04.545Z,78.25
2023-06-27T04:43:58.702Z,78.08
2023-06-27T04:46:49.227Z,77.81
2023-06-27T04:49:41.226Z,77.79
2023-06-27T04:52:33.301Z,77.89
2023-06-27T04:55:25.668Z,77.90
2023-06-27T04:58:17.904Z,78.05
2023-06-27T05:00:53.466Z,78.00
2023-06-27T05:03:45.632Z,78.01
2023-06-27T05:06:37.798Z,77.55
2023-06-27T05:09:12.336Z,77.06
2023-06-27T05:12:04.854Z,76.62
2023-06-27T05:14:56.936Z,76.57
2023-06-27T05:17:54.189Z,76.35
2023-06-27T05:20:26.369Z,76.01
2023-06-27T05:23:18.592Z,75.52
2023-06-27T05:26:10.643Z,75.19
2023-06-27T05:29:02.740Z,75.25
2023-06-27T05:31:54.778Z,75.12
2023-06-27T05:34:48.876Z,75.18
2023-06-27T05:37:42.666Z,74.80
2023-06-27T05:40:35.034Z,74.42
2023-06-27T05:43:27.230Z,74.21
2023-06-27T05:46:19.292Z,73.88
2023-06-27T05:49:11.327Z,73.66
2023-06-27T05:52:03.346Z,73.67
2023-06-27T05:54:55.354Z,73.65
2023-06-27T05:57:33.004Z,73.88
2023-06-27T06:00:25.221Z,73.93
2023-06-27T06:03:17.962Z,72.85
2023-06-27T06:06:11.551Z,73.22
2023-06-27T06:09:04.178Z,73.60
2023-06-27T06:11:56.321Z,72.01
2023-06-27T06:14:48.432Z,69.24
2023-06-27T06:17:40.527Z,67.84
2023-06-27T06:20:33.074Z,67.33
2023-06-27T06:23:25.198Z,67.59
2023-06-27T06:26:17.303Z,67.49
2023-06-27T06:29:14.120Z,68.06
2023-06-27T06:32:07.096Z,68.61
2023-06-27T06:34:44.430Z,68.91
2023-06-27T06:37:36.471Z,69.35
2023-06-27T06:40:18.686Z,69.78
2023-06-27T06:43:10.779Z,70.13
2023-06-27T06:46:03.130Z,70.61
2023-06-27T06:48:37.927Z,70.57
2023-06-27T06:51:38.416Z,70.32
2023-06-27T06:54:26.571Z,69.96
2023-06-27T06:57:18.815Z,69.40
2023-06-27T07:00:14.906Z,69.84
2023-06-27T07:03:10.056Z,69.53
2023-06-27T07:06:02.221Z,69.58
2023-06-27T07:08:55.041Z,69.89
2023-06-27T07:11:48.757Z,69.75
2023-06-27T07:14:25.853Z,69.58
2023-06-27T07:17:18.084Z,70.14
2023-06-27T07:19:50.042Z,70.31
2023-06-27T07:22:43.071Z,70.15
2023-06-27T07:25:36.734Z,69.94
2023-06-27T07:28:28.838Z,69.30
2023-06-27T07:31:20.965Z,69.07
2023-06-27T07:34:13.073Z,68.77
2023-06-27T07:37:05.339Z,68.88
2023-06-27T07:39:59.092Z,68.69
2023-06-27T07:42:51.108Z,68.63
2023-06-27T07:45:43.696Z,68.48
2023-06-27T07:48:35.793Z,68.80
2023-06-27T07:51:16.711Z,69.21
2023-06-27T07:54:10.691Z,69.11
2023-06-27T07:57:02.857Z,69.06
2023-06-27T07:59:54.918Z,68.86
2023-06-27T08:02:46.963Z,68.79
2023-06-27T08:05:42.145Z,68.77
2023-06-27T08:08:37.503Z,68.78
2023-06-27T08:11:20.218Z,68.63
2023-06-27T08:14:12.302Z,68.60
2023-06-27T08:17:04.323Z,68.16
2023-06-27T08:19:56.375Z,67.92
2023-06-27T08:22:48.393Z,67.86
2023-06-27T08:25:40.493Z,67.79
2023-06-27T08:28:33.432Z,67.38
2023-06-27T08:31:25.546Z,66.53
2023-06-27T08:34:17.662Z,65.89
2023-06-27T08:37:11.115Z,65.99
2023-06-27T08:39:53.846Z,65.15
2023-06-27T08:42:45.896Z,64.35
2023-06-27T08:45:27.047Z,64.72
2023-06-27T08:48:13.326Z,64.35
2023-06-27T08:51:07.144Z,64.31
2023-06-27T08:53:50.908Z,64.14
2023-06-27T08:56:44.083Z,63.53
2023-06-27T08:59:37.971Z,62.13
2023-06-27T09:02:30.976Z,61.96
2023-06-27T09:05:24.009Z,61.05
2023-06-27T09:08:16.469Z,59.98
2023-06-27T09:11:11.091Z,59.79
2023-06-27T09:14:04.038Z,58.79
2023-06-27T09:16:56.285Z,58.19
2023-06-27T09:19:48.512Z,58.06
2023-06-27T09:22:25.352Z,57.45
2023-06-27T09:25:20.854Z,56.74
2023-06-27T09:28:19.785Z,56.39
2023-06-27T09:31:01.749Z,56.91
2023-06-27T09:34:06.570Z,56.35
2023-06-27T09:39:59.536Z,54.59
2023-06-27T09:42:56.402Z,54.32
2023-06-27T09:46:00.852Z,53.35
2023-06-27T09:48:55.514Z,51.82
2023-06-27T09:51:50.766Z,51.18
2023-06-27T09:54:48.559Z,51.25
2023-06-27T09:57:44.474Z,51.12
2023-06-27T10:00:36.536Z,50.93
2023-06-27T10:03:29.426Z,50.66
2023-06-27T10:06:21.953Z,50.33
2023-06-27T10:09:14.827Z,49.93
2023-06-27T10:12:08.682Z,49.63
2023-06-27T10:15:02.139Z,48.63
2023-06-27T10:17:54.614Z,48.09
2023-06-27T10:20:47.020Z,48.27
2023-06-27T10:23:22.408Z,48.16
2023-06-27T10:26:14.437Z,47.63
2023-06-27T10:29:18.784Z,47.46
2023-06-27T10:32:11.206Z,46.91
2023-06-27T10:35:14.521Z,46.63
2023-06-27T10:38:11.104Z,47.04
2023-06-27T10:41:13.065Z,47.03
2023-06-27T10:44:13.768Z,46.68
2023-06-27T10:47:31.000Z,46.54
2023-06-27T10:50:27.070Z,46.06
2023-06-27T10:53:19.350Z,46.22
2023-06-27T10:56:29.421Z,46.10
2023-06-27T10:59:23.787Z,44.73
2023-06-27T11:02:16.897Z,44.50
2023-06-27T11:05:17.434Z,44.27
2023-06-27T11:08:16.317Z,43.52
2023-06-27T11:11:10.940Z,43.02
2023-06-27T11:14:09.119Z,43.02
2023-06-27T11:17:01.864Z,43.21
2023-06-27T11:19:57.891Z,42.86
2023-06-27T11:22:50.013Z,42.53
2023-06-27T11:25:44.566Z,41.63
2023-06-27T11:28:37.594Z,41.31
2023-06-27T11:31:30.195Z,41.80
2023-06-27T11:34:22.351Z,41.31
2023-06-27T11:37:15.581Z,40.37
2023-06-27T11:40:17.133Z,40.29
2023-06-27T11:43:11.206Z,40.69
2023-06-27T11:46:03.887Z,40.60
2023-06-27T11:48:56.006Z,40.80
2023-06-27T11:51:41.301Z,40.50
2023-06-27T11:54:33.367Z,39.90
2023-06-27T11:57:14.829Z,39.41
2023-06-27T12:00:14.446Z,39.58
2023-06-27T12:03:07.707Z,39.72
2023-06-27T12:06:02.090Z,39.50
2023-06-27T12:08:54.150Z,39.67
2023-06-27T12:11:46.189Z,39.90
2023-06-27T12:14:38.231Z,39.29
2023-06-27T12:17:30.284Z,38.24
2023-06-27T12:20:22.367Z,37.71
2023-06-27T12:23:14.530Z,38.02
2023-06-27T12:26:06.482Z,37.92
2023-06-27T12:28:59.782Z,38.55
2023-06-27T12:31:53.140Z,38.33
2023-06-27T12:34:45.216Z,37.94
2023-06-27T12:37:37.385Z,37.51
2023-06-27T12:40:29.680Z,37.70
2023-06-27T12:43:21.916Z,37.19
2023-06-27T12:46:15.047Z,36.73
2023-06-27T12:49:07.100Z,37.10
2023-06-27T12:51:59.125Z,37.07
2023-06-27T12:54:51.231Z,36.45
2023-06-27T12:57:43.328Z,36.67
2023-06-27T13:00:38.979Z,36.17
2023-06-27T13:03:32.458Z,35.47
2023-06-27T13:06:24.674Z,35.89
2023-06-27T13:09:16.754Z,35.61
2023-06-27T13:11:55.302Z,35.14
2023-06-27T13:14:47.314Z,35.50
2023-06-27T13:17:41.528Z,35.62
2023-06-27T13:20:33.738Z,35.46
2023-06-27T13:23:25.772Z,35.88
2023-06-27T13:26:17.816Z,35.90
2023-06-27T13:29:10.287Z,36.37
2023-06-27T13:31:58.864Z,37.45
2023-06-27T13:34:35.933Z,39.76
2023-06-27T13:37:28.212Z,40.29
2023-06-27T13:40:20.289Z,40.85
2023-06-27T13:43:12.348Z,41.05
2023-06-27T13:46:04.922Z,41.01
2023-06-27T13:48:58.329Z,40.11
2023-06-27T13:51:50.355Z,39.92
2023-06-27T13:54:42.558Z,39.58
2023-06-27T13:57:17.551Z,39.37
2023-06-27T13:59:58.587Z,39.41
2023-06-27T14:02:50.794Z,39.22
2023-06-27T14:05:44.379Z,39.42
2023-06-27T14:08:36.413Z,39.23
2023-06-27T14:11:30.087Z,39.78
2023-06-27T14:14:22.492Z,39.70
2023-06-27T14:17:14.554Z,39.89
2023-06-27T14:20:09.391Z,40.00
2023-06-27T14:23:02.013Z,40.33
2023-06-27T14:25:54.160Z,40.25
2023-06-27T14:28:46.961Z,39.90
2023-06-27T14:31:26.852Z,39.56
2023-06-27T14:34:02.736Z,39.42
2023-06-27T14:36:57.053Z,39.67
2023-06-27T14:39:45.614Z,39.95
2023-06-27T14:42:19.678Z,40.27
2023-06-27T14:45:13.276Z,40.33
2023-06-27T14:48:05.698Z,40.05
2023-06-27T14:50:58.491Z,40.09
2023-06-27T14:53:50.621Z,40.09
2023-06-27T14:56:26.662Z,39.93
2023-06-27T14:59:18.794Z,39.73
2023-06-27T15:02:11.113Z,39.58
2023-06-27T15:05:03.308Z,39.84
2023-06-27T15:07:55.718Z,39.26
2023-06-27T15:10:48.373Z,39.15
2023-06-27T15:13:41.186Z,39.02
2023-06-27T15:16:33.279Z,38.41
2023-06-27T15:19:25.281Z,38.19
2023-06-27T15:22:17.304Z,38.18
2023-06-27T15:25:10.806Z,38.18
2023-06-27T15:28:04.562Z,38.07
2023-06-27T15:30:45.692Z,37.80
2023-06-27T15:33:37.876Z,37.71
2023-06-27T15:36:31.863Z,37.83
2023-06-27T15:39:23.981Z,37.92
2023-06-27T15:42:16.357Z,38.22
2023-06-27T15:45:10.446Z,38.57
2023-06-27T15:48:00.994Z,38.64
2023-06-27T15:50:53.144Z,38.77
2023-06-27T15:53:45.214Z,39.32
2023-06-27T15:56:37.344Z,39.58
2023-06-27T15:59:29.429Z,39.80
2023-06-27T16:02:21.476Z,39.99
2023-06-27T16:05:14.282Z,39.69
2023-06-27T16:08:06.966Z,39.43
2023-06-27T16:10:59.047Z,39.69
2023-06-27T16:13:51.054Z,39.99
2023-06-27T16:16:43.127Z,40.07
2023-06-27T16:19:17.714Z,40.58
2023-06-27T16:22:09.816Z,40.88
2023-06-27T16:25:02.787Z,40.95
2023-06-27T16:27:54.835Z,40.70
2023-06-27T16:30:48.382Z,40.45
2023-06-27T16:33:40.680Z,40.11
2023-06-27T16:36:32.777Z,40.13
2023-06-27T16:39:24.913Z,40.55
2023-06-27T16:42:17.286Z,40.55
2023-06-27T16:45:11.666Z,40.86
2023-06-27T16:48:03.863Z,41.24
2023-06-27T16:50:41.611Z,41.02
2023-06-27T16:53:34.063Z,40.95
2023-06-27T16:56:26.206Z,41.17
2023-06-27T16:59:18.710Z,41.28
2023-06-27T17:02:10.899Z,41.29
2023-06-27T17:04:45.927Z,41.63
2023-06-27T17:07:17.934Z,41.64
2023-06-27T17:10:11.288Z,41.95
2023-06-27T17:13:03.380Z,42.46
2023-06-27T17:15:56.926Z,42.65
2023-06-27T17:18:48.961Z,42.94
2023-06-27T17:21:30.617Z,43.12
2023-06-27T17:24:22.717Z,43.49
2023-06-27T17:27:14.951Z,43.91
2023-06-27T17:30:08.346Z,44.07
2023-06-27T17:33:00.546Z,44.28
2023-06-27T17:35:42.188Z,44.26
2023-06-27T17:38:35.693Z,44.41
2023-06-27T17:41:27.783Z,44.55
2023-06-27T17:44:19.812Z,44.61
2023-06-27T17:47:13.802Z,44.71
2023-06-27T17:49:51.253Z,44.65
2023-06-27T17:52:43.811Z,44.73
2023-06-27T17:55:35.888Z,44.82
2023-06-27T17:58:28.637Z,44.77
2023-06-27T18:01:20.769Z,45.16
2023-06-27T18:04:12.923Z,45.57
2023-06-27T18:07:05.234Z,45.64
2023-06-27T18:09:57.327Z,45.79
2023-06-27T18:12:49.365Z,45.95
2023-06-27T18:15:26.379Z,45.93
2023-06-27T18:18:18.455Z,45.95
2023-06-27T18:21:10.520Z,46.00
2023-06-27T18:24:03.289Z,46.32
2023-06-27T18:26:55.315Z,46.69
2023-06-27T18:29:49.079Z,47.27
2023-06-27T18:32:44.096Z,47.38
2023-06-27T18:35:39.004Z,47.32
2023-06-27T18:38:32.026Z,47.57
2023-06-27T18:41:24.048Z,47.76
2023-06-27T18:44:16.552Z,47.95
2023-06-27T18:46:58.545Z,48.30
2023-06-27T18:49:50.701Z,48.49
2023-06-27T18:52:42.902Z,48.57
2023-06-27T18:55:34.948Z,48.72
2023-06-27T18:58:27.316Z,48.91
2023-06-27T19:01:02.688Z,48.91
2023-06-27T19:03:54.911Z,49.29
2023-06-27T19:06:50.981Z,49.15
2023-06-27T19:09:43.331Z,49.31
2023-06-27T19:12:35.409Z,49.38
2023-06-27T19:15:27.455Z,49.49
2023-06-27T19:18:02.245Z,49.51
2023-06-27T19:20:54.869Z,49.68
2023-06-27T19:23:47.348Z,49.86
2023-06-27T19:26:39.364Z,49.92
2023-06-27T19:29:31.520Z,49.96
2023-06-27T19:32:23.917Z,50.01
2023-06-27T19:35:16.675Z,50.24
2023-06-27T19:38:08.819Z,50.38
2023-06-27T19:41:00.898Z,50.51
2023-06-27T19:43:35.432Z,50.60
2023-06-27T19:46:27.573Z,50.81
2023-06-27T19:49:19.685Z,51.02
2023-06-27T19:52:11.944Z,51.06
2023-06-27T19:55:04.064Z,51.19
2023-06-27T19:57:59.021Z,51.40
2023-06-27T20:00:51.270Z,51.49
2023-06-27T20:03:43.518Z,51.73
2023-06-27T20:06:35.569Z,52.15
2023-06-27T20:09:27.830Z,52.43
2023-06-27T20:12:20.043Z,52.50
2023-06-27T20:15:13.748Z,52.68
2023-06-27T20:18:06.054Z,52.68
2023-06-27T20:20:58.605Z,52.92
2023-06-27T20:23:50.687Z,53.12
2023-06-27T20:26:42.744Z,53.32
2023-06-27T20:29:35.130Z,53.62
2023-06-27T20:32:27.223Z,53.78
2023-06-27T20:35:20.419Z,54.14
2023-06-27T20:38:12.729Z,54.14
2023-06-27T20:41:04.768Z,54.34
2023-06-27T20:43:57.050Z,54.53
2023-06-27T20:46:52.363Z,54.58
2023-06-27T20:49:44.514Z,54.75
2023-06-27T20:52:36.527Z,54.81
2023-06-27T20:55:29.064Z,55.04
2023-06-27T20:58:21.182Z,55.18
2023-06-27T21:01:13.710Z,55.61
2023-06-27T21:04:07.031Z,55.70
2023-06-27T21:06:59.393Z,55.75
2023-06-27T21:09:51.421Z,56.24
2023-06-27T21:12:43.696Z,56.43
2023-06-27T21:15:35.717Z,56.42
2023-06-27T21:18:28.661Z,56.44
2023-06-27T21:21:21.087Z,56.56
2023-06-27T21:24:13.166Z,56.79
2023-06-27T21:27:05.481Z,56.88
2023-06-27T21:29:57.671Z,57.05
2023-06-27T21:32:49.755Z,57.25
2023-06-27T21:35:41.945Z,57.35
2023-06-27T21:38:34.092Z,57.53
2023-06-27T21:41:26.111Z,57.76
2023-06-27T21:44:18.252Z,57.87
2023-06-27T21:47:10.591Z,58.00
2023-06-27T21:50:04.117Z,58.06
2023-06-27T21:52:56.274Z,58.44
2023-06-27T21:55:48.637Z,58.66
2023-06-27T21:58:40.678Z,58.76
2023-06-27T22:01:33.153Z,59.08
2023-06-27T22:04:25.328Z,59.25
2023-06-27T22:07:17.619Z,59.42
2023-06-27T22:10:11.051Z,59.48
2023-06-27T22:13:03.238Z,59.65
2023-06-27T22:15:55.642Z,59.93
2023-06-27T22:18:50.074Z,60.10
2023-06-27T22:21:42.130Z,60.14
2023-06-27T22:24:34.253Z,60.20
2023-06-27T22:27:10.163Z,60.29
2023-06-27T22:30:03.343Z,60.37
2023-06-27T22:32:55.462Z,60.36
2023-06-27T22:35:37.723Z,60.40
2023-06-27T22:38:29.768Z,60.65
2023-06-27T22:41:21.878Z,60.39
2023-06-27T22:44:13.967Z,60.73
2023-06-27T22:47:06.645Z,60.69
2023-06-27T22:49:58.734Z,60.92
2023-06-27T22:52:50.847Z,60.95
2023-06-27T22:55:42.863Z,61.01
2023-06-27T22:58:35.491Z,61.18
2023-06-27T23:01:27.562Z,61.24
2023-06-27T23:04:19.642Z,61.34
2023-06-27T23:07:11.772Z,61.35
2023-06-27T23:10:03.839Z,61.55
2023-06-27T23:12:55.877Z,61.80
2023-06-27T23:15:50.330Z,61.91
2023-06-27T23:18:42.934Z,62.00
2023-06-27T23:21:36.551Z,62.05
2023-06-27T23:24:28.816Z,62.16
2023-06-27T23:27:21.133Z,62.33
2023-06-27T23:30:16.979Z,62.42
2023-06-27T23:33:10.779Z,62.40
2023-06-27T23:36:03.156Z,62.37
2023-06-27T23:38:55.128Z,62.51
2023-06-27T23:41:47.149Z,62.64
2023-06-27T23:44:39.170Z,62.75
2023-06-27T23:47:31.351Z,63.01
2023-06-27T23:50:23.694Z,63.01
2023-06-27T23:53:15.886Z,63.21
2023-06-27T23:56:08.582Z,63.36
2023-06-27T23:59:00.683Z,63.31
